Bookmark and Share
Track history (hours):
 

Jacobus

Last reported at 2014-Apr-12 14:33 UTC. Time now 2014-Apr-19 14:31 UTC.
Position N 39°30' E 002°45'.

Length 17 m.

Type: Pleasure craft. MMSI: 205379010.

NotesDate/timePositionNaut miles runAvg speedWind from/ knotsBaromVisibWave heightAir tempDewpointWater temp
2014-Apr-12 14:33N 39°30' E 002°45'0 0.2
2014-Apr-12 13:33N 39°30' E 002°45'1 1.3
2014-Apr-12 12:33N 39°31' E 002°44'3 3.4
2014-Apr-12 11:33N 39°29' E 002°40'6 2.5
2014-Apr-12 09:22N 39°32' E 002°34'0 0.0
2014-Apr-12 01:28N 39°32' E 002°34'0 0.1
2014-Apr-11 18:12N 39°31' E 002°34'4 6.4
2014-Apr-11 17:33N 39°27' E 002°33'3 3.3
2014-Apr-11 16:33N 39°26' E 002°29'3 0.8
2014-Apr-11 12:26N 39°29' E 002°27'3 3.9
2014-Apr-11 11:33N 39°29' E 002°23'21 0.9
2014-Apr-10 12:09N 39°46' E 002°38'3 0.2
2014-Apr-09 18:33N 39°48' E 002°42'0 0.0
2014-Apr-09 17:32N 39°48' E 002°42'2 2.5
2014-Apr-09 16:33N 39°47' E 002°39'20 6.1
2014-Apr-09 13:11N 39°30' E 002°23'6 7.0
2014-Apr-09 12:20N 39°27' E 002°30'5 6.2
2014-Apr-09 11:33N 39°30' E 002°35'4 3.7
2014-Apr-09 10:33N 39°33' E 002°38'0 0.0
2014-Apr-08 15:33N 39°33' E 002°38'4 3.7
2014-Apr-08 14:33N 39°31' E 002°43'  

Dump ship's entire track history

sailing weather and tide predictions

Jacobus — OR3790 — position and weather